sensor_id;sensor_type;location;lat;lon;timestamp;P1;durP1;ratioP1;P2;durP2;ratioP2
17844;SDS011;9047;53.486;10.218;2022-12-24T00:01:38;39.45;;;13.77;;
17844;SDS011;9047;53.486;10.218;2022-12-24T00:04:07;35.72;;;13.55;;
17844;SDS011;9047;53.486;10.218;2022-12-24T00:06:35;34.42;;;13.13;;
17844;SDS011;9047;53.486;10.218;2022-12-24T00:09:03;40.75;;;13.60;;
17844;SDS011;9047;53.486;10.218;2022-12-24T00:11:30;41.08;;;14.23;;
17844;SDS011;9047;53.486;10.218;2022-12-24T00:13:57;40.17;;;14.45;;
17844;SDS011;9047;53.486;10.218;2022-12-24T00:16:24;41.30;;;14.77;;
17844;SDS011;9047;53.486;10.218;2022-12-24T00:18:52;38.08;;;13.90;;
17844;SDS011;9047;53.486;10.218;2022-12-24T00:21:22;38.33;;;14.15;;
17844;SDS011;9047;53.486;10.218;2022-12-24T00:24:01;40.20;;;14.63;;
17844;SDS011;9047;53.486;10.218;2022-12-24T00:26:29;41.30;;;14.82;;
17844;SDS011;9047;53.486;10.218;2022-12-24T00:28:56;43.45;;;13.98;;
17844;SDS011;9047;53.486;10.218;2022-12-24T00:31:23;39.03;;;14.95;;
17844;SDS011;9047;53.486;10.218;2022-12-24T00:33:50;46.03;;;15.32;;
17844;SDS011;9047;53.486;10.218;2022-12-24T00:36:20;42.20;;;15.05;;
17844;SDS011;9047;53.486;10.218;2022-12-24T00:38:47;49.13;;;14.93;;
17844;SDS011;9047;53.486;10.218;2022-12-24T00:41:17;43.97;;;15.20;;
17844;SDS011;9047;53.486;10.218;2022-12-24T00:43:50;50.70;;;16.67;;
17844;SDS011;9047;53.486;10.218;2022-12-24T00:46:17;47.58;;;14.88;;
17844;SDS011;9047;53.486;10.218;2022-12-24T00:48:45;43.83;;;14.82;;
17844;SDS011;9047;53.486;10.218;2022-12-24T00:51:12;42.50;;;14.40;;
17844;SDS011;9047;53.486;10.218;2022-12-24T00:53:39;43.78;;;14.73;;
17844;SDS011;9047;53.486;10.218;2022-12-24T00:56:09;53.35;;;16.02;;
17844;SDS011;9047;53.486;10.218;2022-12-24T00:58:37;51.13;;;15.75;;
17844;SDS011;9047;53.486;10.218;2022-12-24T01:01:05;59.72;;;16.73;;
17844;SDS011;9047;53.486;10.218;2022-12-24T01:03:33;43.58;;;15.52;;
17844;SDS011;9047;53.486;10.218;2022-12-24T01:06:01;50.33;;;15.52;;
17844;SDS011;9047;53.486;10.218;2022-12-24T01:08:27;50.03;;;15.45;;
17844;SDS011;9047;53.486;10.218;2022-12-24T01:10:57;46.78;;;15.25;;
17844;SDS011;9047;53.486;10.218;2022-12-24T01:13:24;52.80;;;15.93;;
17844;SDS011;9047;53.486;10.218;2022-12-24T01:15:53;49.78;;;16.08;;
17844;SDS011;9047;53.486;10.218;2022-12-24T01:18:20;50.03;;;16.48;;
17844;SDS011;9047;53.486;10.218;2022-12-24T01:20:54;52.70;;;15.25;;
17844;SDS011;9047;53.486;10.218;2022-12-24T01:23:23;54.10;;;15.45;;
17844;SDS011;9047;53.486;10.218;2022-12-24T01:25:50;52.45;;;16.33;;
17844;SDS011;9047;53.486;10.218;2022-12-24T01:28:17;46.92;;;15.63;;
17844;SDS011;9047;53.486;10.218;2022-12-24T01:30:44;55.90;;;15.93;;
17844;SDS011;9047;53.486;10.218;2022-12-24T01:33:13;53.05;;;15.75;;
17844;SDS011;9047;53.486;10.218;2022-12-24T01:35:40;62.95;;;16.25;;
17844;SDS011;9047;53.486;10.218;2022-12-24T01:38:08;56.85;;;16.45;;
17844;SDS011;9047;53.486;10.218;2022-12-24T01:40:36;52.72;;;15.90;;
17844;SDS011;9047;53.486;10.218;2022-12-24T01:43:21;51.70;;;16.23;;
17844;SDS011;9047;53.486;10.218;2022-12-24T01:45:51;52.92;;;17.15;;
17844;SDS011;9047;53.486;10.218;2022-12-24T01:48:22;57.00;;;16.85;;
17844;SDS011;9047;53.486;10.218;2022-12-24T01:50:57;53.60;;;15.45;;
17844;SDS011;9047;53.486;10.218;2022-12-24T01:53:27;62.20;;;17.92;;
17844;SDS011;9047;53.486;10.218;2022-12-24T01:55:56;54.78;;;16.33;;
17844;SDS011;9047;53.486;10.218;2022-12-24T01:58:23;61.72;;;16.60;;
17844;SDS011;9047;53.486;10.218;2022-12-24T02:00:52;54.72;;;16.42;;
17844;SDS011;9047;53.486;10.218;2022-12-24T02:03:19;66.63;;;17.00;;
17844;SDS011;9047;53.486;10.218;2022-12-24T02:05:48;60.25;;;17.48;;
17844;SDS011;9047;53.486;10.218;2022-12-24T02:08:18;69.50;;;18.05;;
17844;SDS011;9047;53.486;10.218;2022-12-24T02:10:46;65.53;;;17.70;;
17844;SDS011;9047;53.486;10.218;2022-12-24T02:13:15;65.35;;;17.85;;
17844;SDS011;9047;53.486;10.218;2022-12-24T02:15:50;67.45;;;18.13;;
17844;SDS011;9047;53.486;10.218;2022-12-24T02:18:28;65.53;;;17.63;;
17844;SDS011;9047;53.486;10.218;2022-12-24T02:26:57;92.22;;;19.40;;
17844;SDS011;9047;53.486;10.218;2022-12-24T02:29:58;64.65;;;17.77;;
17844;SDS011;9047;53.486;10.218;2022-12-24T02:32:33;80.63;;;19.85;;
17844;SDS011;9047;53.486;10.218;2022-12-24T02:35:07;91.38;;;20.33;;
17844;SDS011;9047;53.486;10.218;2022-12-24T02:37:40;70.80;;;19.67;;
17844;SDS011;9047;53.486;10.218;2022-12-24T02:40:16;87.05;;;21.10;;
17844;SDS011;9047;53.486;10.218;2022-12-24T02:42:47;64.88;;;18.88;;
17844;SDS011;9047;53.486;10.218;2022-12-24T02:45:21;68.25;;;18.52;;
17844;SDS011;9047;53.486;10.218;2022-12-24T02:47:52;63.78;;;17.70;;
17844;SDS011;9047;53.486;10.218;2022-12-24T02:50:21;63.53;;;17.30;;
17844;SDS011;9047;53.486;10.218;2022-12-24T02:52:49;62.78;;;17.15;;
17844;SDS011;9047;53.486;10.218;2022-12-24T02:55:19;58.88;;;17.42;;
17844;SDS011;9047;53.486;10.218;2022-12-24T02:58:09;64.35;;;16.85;;
17844;SDS011;9047;53.486;10.218;2022-12-24T03:00:53;67.57;;;17.48;;
17844;SDS011;9047;53.486;10.218;2022-12-24T03:03:46;53.45;;;16.92;;
17844;SDS011;9047;53.486;10.218;2022-12-24T03:06:23;91.53;;;19.45;;
17844;SDS011;9047;53.486;10.218;2022-12-24T03:09:01;79.80;;;18.60;;
17844;SDS011;9047;53.486;10.218;2022-12-24T03:11:38;94.30;;;17.98;;
17844;SDS011;9047;53.486;10.218;2022-12-24T03:14:09;67.13;;;17.02;;
17844;SDS011;9047;53.486;10.218;2022-12-24T03:16:39;63.85;;;16.20;;
17844;SDS011;9047;53.486;10.218;2022-12-24T03:19:07;84.13;;;17.65;;
17844;SDS011;9047;53.486;10.218;2022-12-24T03:21:35;57.20;;;16.92;;
17844;SDS011;9047;53.486;10.218;2022-12-24T03:24:06;73.78;;;16.77;;
17844;SDS011;9047;53.486;10.218;2022-12-24T03:26:34;63.25;;;15.65;;
17844;SDS011;9047;53.486;10.218;2022-12-24T03:29:03;48.55;;;13.70;;
17844;SDS011;9047;53.486;10.218;2022-12-24T03:31:45;70.07;;;15.55;;
17844;SDS011;9047;53.486;10.218;2022-12-24T03:34:14;72.10;;;14.38;;
17844;SDS011;9047;53.486;10.218;2022-12-24T03:36:44;59.15;;;14.13;;
17844;SDS011;9047;53.486;10.218;2022-12-24T03:39:13;46.72;;;12.85;;
17844;SDS011;9047;53.486;10.218;2022-12-24T03:41:40;58.45;;;13.90;;
17844;SDS011;9047;53.486;10.218;2022-12-24T03:44:07;46.33;;;12.57;;
17844;SDS011;9047;53.486;10.218;2022-12-24T03:46:34;54.95;;;13.20;;
17844;SDS011;9047;53.486;10.218;2022-12-24T03:49:03;50.75;;;12.50;;
17844;SDS011;9047;53.486;10.218;2022-12-24T03:51:29;54.95;;;13.43;;
17844;SDS011;9047;53.486;10.218;2022-12-24T03:53:57;50.20;;;13.15;;
17844;SDS011;9047;53.486;10.218;2022-12-24T03:56:24;51.00;;;13.43;;
17844;SDS011;9047;53.486;10.218;2022-12-24T03:58:52;56.08;;;13.57;;
17844;SDS011;9047;53.486;10.218;2022-12-24T04:01:19;47.60;;;13.23;;
17844;SDS011;9047;53.486;10.218;2022-12-24T04:03:46;54.85;;;13.10;;
17844;SDS011;9047;53.486;10.218;2022-12-24T04:06:15;68.07;;;14.60;;
17844;SDS011;9047;53.486;10.218;2022-12-24T04:08:45;45.42;;;12.57;;
17844;SDS011;9047;53.486;10.218;2022-12-24T04:11:14;50.53;;;13.70;;
17844;SDS011;9047;53.486;10.218;2022-12-24T04:13:41;44.05;;;12.88;;
17844;SDS011;9047;53.486;10.218;2022-12-24T04:16:09;46.83;;;12.48;;
17844;SDS011;9047;53.486;10.218;2022-12-24T04:18:38;63.45;;;14.90;;
17844;SDS011;9047;53.486;10.218;2022-12-24T04:21:06;79.90;;;15.63;;
17844;SDS011;9047;53.486;10.218;2022-12-24T04:23:36;75.18;;;14.43;;
17844;SDS011;9047;53.486;10.218;2022-12-24T04:26:04;50.10;;;14.15;;
17844;SDS011;9047;53.486;10.218;2022-12-24T04:28:33;70.15;;;15.85;;
17844;SDS011;9047;53.486;10.218;2022-12-24T04:31:01;72.57;;;15.35;;
17844;SDS011;9047;53.486;10.218;2022-12-24T04:33:32;54.08;;;13.65;;
17844;SDS011;9047;53.486;10.218;2022-12-24T04:36:02;62.00;;;15.35;;
17844;SDS011;9047;53.486;10.218;2022-12-24T04:38:30;80.90;;;16.38;;
17844;SDS011;9047;53.486;10.218;2022-12-24T04:41:00;75.53;;;14.95;;
17844;SDS011;9047;53.486;10.218;2022-12-24T04:43:28;75.40;;;16.02;;
17844;SDS011;9047;53.486;10.218;2022-12-24T04:45:55;56.63;;;14.85;;
17844;SDS011;9047;53.486;10.218;2022-12-24T04:48:22;52.03;;;15.10;;
17844;SDS011;9047;53.486;10.218;2022-12-24T04:50:49;66.55;;;15.35;;
17844;SDS011;9047;53.486;10.218;2022-12-24T04:53:16;59.90;;;15.07;;
17844;SDS011;9047;53.486;10.218;2022-12-24T04:55:44;72.47;;;17.25;;
17844;SDS011;9047;53.486;10.218;2022-12-24T04:58:13;76.63;;;15.80;;
17844;SDS011;9047;53.486;10.218;2022-12-24T05:00:40;50.63;;;15.63;;
17844;SDS011;9047;53.486;10.218;2022-12-24T05:03:07;63.67;;;15.98;;
17844;SDS011;9047;53.486;10.218;2022-12-24T05:05:34;72.40;;;15.63;;
17844;SDS011;9047;53.486;10.218;2022-12-24T05:08:03;61.30;;;15.90;;
17844;SDS011;9047;53.486;10.218;2022-12-24T05:10:31;90.57;;;17.88;;
17844;SDS011;9047;53.486;10.218;2022-12-24T05:12:58;73.75;;;16.88;;
17844;SDS011;9047;53.486;10.218;2022-12-24T05:15:27;81.50;;;16.38;;
17844;SDS011;9047;53.486;10.218;2022-12-24T05:17:55;78.15;;;16.13;;
17844;SDS011;9047;53.486;10.218;2022-12-24T05:20:22;51.08;;;13.85;;
17844;SDS011;9047;53.486;10.218;2022-12-24T05:22:49;54.38;;;13.63;;
17844;SDS011;9047;53.486;10.218;2022-12-24T05:25:35;56.13;;;14.32;;
17844;SDS011;9047;53.486;10.218;2022-12-24T05:28:21;87.30;;;16.45;;
17844;SDS011;9047;53.486;10.218;2022-12-24T05:30:51;50.30;;;13.60;;
17844;SDS011;9047;53.486;10.218;2022-12-24T05:33:18;44.67;;;13.57;;
17844;SDS011;9047;53.486;10.218;2022-12-24T05:35:45;63.40;;;14.85;;
17844;SDS011;9047;53.486;10.218;2022-12-24T05:38:14;44.72;;;13.07;;
17844;SDS011;9047;53.486;10.218;2022-12-24T05:40:42;77.22;;;15.90;;
17844;SDS011;9047;53.486;10.218;2022-12-24T05:43:09;43.92;;;12.93;;
17844;SDS011;9047;53.486;10.218;2022-12-24T05:45:38;77.28;;;14.30;;
17844;SDS011;9047;53.486;10.218;2022-12-24T05:48:14;79.45;;;15.15;;
17844;SDS011;9047;53.486;10.218;2022-12-24T05:50:42;68.40;;;14.82;;
17844;SDS011;9047;53.486;10.218;2022-12-24T05:53:10;58.70;;;13.00;;
17844;SDS011;9047;53.486;10.218;2022-12-24T05:55:38;51.92;;;12.65;;
17844;SDS011;9047;53.486;10.218;2022-12-24T05:58:06;57.80;;;13.20;;
17844;SDS011;9047;53.486;10.218;2022-12-24T06:00:33;64.93;;;13.02;;
17844;SDS011;9047;53.486;10.218;2022-12-24T06:03:14;52.95;;;12.75;;
17844;SDS011;9047;53.486;10.218;2022-12-24T06:05:41;48.72;;;12.40;;
17844;SDS011;9047;53.486;10.218;2022-12-24T06:08:10;67.68;;;13.35;;
17844;SDS011;9047;53.486;10.218;2022-12-24T06:10:37;45.20;;;11.90;;
17844;SDS011;9047;53.486;10.218;2022-12-24T06:13:09;42.25;;;11.60;;
17844;SDS011;9047;53.486;10.218;2022-12-24T06:15:36;49.35;;;12.23;;
17844;SDS011;9047;53.486;10.218;2022-12-24T06:18:03;61.08;;;11.82;;
17844;SDS011;9047;53.486;10.218;2022-12-24T06:20:34;49.25;;;12.40;;
17844;SDS011;9047;53.486;10.218;2022-12-24T06:23:04;51.63;;;12.07;;
17844;SDS011;9047;53.486;10.218;2022-12-24T06:25:31;47.40;;;11.68;;
17844;SDS011;9047;53.486;10.218;2022-12-24T06:28:00;39.60;;;11.77;;
17844;SDS011;9047;53.486;10.218;2022-12-24T06:30:28;54.53;;;12.20;;
17844;SDS011;9047;53.486;10.218;2022-12-24T06:32:57;48.17;;;12.25;;
17844;SDS011;9047;53.486;10.218;2022-12-24T06:35:26;56.53;;;12.88;;
17844;SDS011;9047;53.486;10.218;2022-12-24T06:37:57;46.17;;;11.70;;
17844;SDS011;9047;53.486;10.218;2022-12-24T06:40:24;40.42;;;12.15;;
17844;SDS011;9047;53.486;10.218;2022-12-24T06:42:52;58.30;;;12.48;;
17844;SDS011;9047;53.486;10.218;2022-12-24T06:45:19;38.03;;;10.95;;
17844;SDS011;9047;53.486;10.218;2022-12-24T06:47:49;36.78;;;10.60;;
17844;SDS011;9047;53.486;10.218;2022-12-24T06:50:16;30.50;;;9.88;;
17844;SDS011;9047;53.486;10.218;2022-12-24T06:52:44;46.22;;;11.38;;
17844;SDS011;9047;53.486;10.218;2022-12-24T06:55:18;33.95;;;10.57;;
17844;SDS011;9047;53.486;10.218;2022-12-24T06:57:44;46.72;;;11.15;;
17844;SDS011;9047;53.486;10.218;2022-12-24T07:00:14;32.25;;;10.02;;
17844;SDS011;9047;53.486;10.218;2022-12-24T07:02:42;34.40;;;10.45;;
17844;SDS011;9047;53.486;10.218;2022-12-24T07:05:10;42.25;;;11.38;;
17844;SDS011;9047;53.486;10.218;2022-12-24T07:07:38;33.33;;;10.10;;
17844;SDS011;9047;53.486;10.218;2022-12-24T07:10:09;46.40;;;10.60;;
17844;SDS011;9047;53.486;10.218;2022-12-24T07:12:40;32.65;;;9.98;;
17844;SDS011;9047;53.486;10.218;2022-12-24T07:15:09;38.33;;;10.63;;
17844;SDS011;9047;53.486;10.218;2022-12-24T07:17:38;29.90;;;9.20;;
17844;SDS011;9047;53.486;10.218;2022-12-24T07:20:09;33.95;;;9.27;;
17844;SDS011;9047;53.486;10.218;2022-12-24T07:22:40;26.73;;;8.57;;
17844;SDS011;9047;53.486;10.218;2022-12-24T07:25:10;37.42;;;9.20;;
17844;SDS011;9047;53.486;10.218;2022-12-24T07:27:40;39.13;;;10.20;;
17844;SDS011;9047;53.486;10.218;2022-12-24T07:30:10;26.67;;;8.75;;
17844;SDS011;9047;53.486;10.218;2022-12-24T07:32:38;25.02;;;8.65;;
17844;SDS011;9047;53.486;10.218;2022-12-24T07:35:06;29.88;;;8.48;;
17844;SDS011;9047;53.486;10.218;2022-12-24T07:37:34;26.73;;;8.77;;
17844;SDS011;9047;53.486;10.218;2022-12-24T07:40:03;27.77;;;8.25;;
17844;SDS011;9047;53.486;10.218;2022-12-24T07:42:33;35.80;;;9.73;;
17844;SDS011;9047;53.486;10.218;2022-12-24T07:45:05;24.88;;;8.77;;
17844;SDS011;9047;53.486;10.218;2022-12-24T07:47:34;40.33;;;9.60;;
17844;SDS011;9047;53.486;10.218;2022-12-24T07:50:02;30.25;;;8.35;;
17844;SDS011;9047;53.486;10.218;2022-12-24T07:52:34;32.03;;;8.98;;
17844;SDS011;9047;53.486;10.218;2022-12-24T07:55:01;35.20;;;8.90;;
17844;SDS011;9047;53.486;10.218;2022-12-24T07:57:28;29.02;;;8.35;;
17844;SDS011;9047;53.486;10.218;2022-12-24T07:59:55;23.20;;;8.02;;
17844;SDS011;9047;53.486;10.218;2022-12-24T08:02:23;33.25;;;9.60;;
17844;SDS011;9047;53.486;10.218;2022-12-24T08:04:50;27.13;;;9.55;;
17844;SDS011;9047;53.486;10.218;2022-12-24T08:07:17;24.70;;;8.48;;
17844;SDS011;9047;53.486;10.218;2022-12-24T08:09:44;21.00;;;7.85;;
17844;SDS011;9047;53.486;10.218;2022-12-24T08:12:11;20.48;;;7.95;;
17844;SDS011;9047;53.486;10.218;2022-12-24T08:14:38;30.85;;;9.23;;
17844;SDS011;9047;53.486;10.218;2022-12-24T08:17:05;29.95;;;8.70;;
17844;SDS011;9047;53.486;10.218;2022-12-24T08:19:34;29.77;;;8.85;;
17844;SDS011;9047;53.486;10.218;2022-12-24T08:22:01;27.33;;;8.68;;
17844;SDS011;9047;53.486;10.218;2022-12-24T08:24:28;24.27;;;8.10;;
17844;SDS011;9047;53.486;10.218;2022-12-24T08:26:58;30.85;;;9.05;;
17844;SDS011;9047;53.486;10.218;2022-12-24T08:29:28;30.05;;;9.18;;
17844;SDS011;9047;53.486;10.218;2022-12-24T08:31:56;30.10;;;8.60;;
17844;SDS011;9047;53.486;10.218;2022-12-24T08:34:23;28.05;;;8.50;;
17844;SDS011;9047;53.486;10.218;2022-12-24T08:36:51;25.73;;;7.68;;
17844;SDS011;9047;53.486;10.218;2022-12-24T08:39:18;19.60;;;7.93;;
17844;SDS011;9047;53.486;10.218;2022-12-24T08:41:45;20.88;;;7.35;;
17844;SDS011;9047;53.486;10.218;2022-12-24T08:44:12;19.60;;;7.53;;
17844;SDS011;9047;53.486;10.218;2022-12-24T08:46:39;31.17;;;8.80;;
17844;SDS011;9047;53.486;10.218;2022-12-24T08:49:08;21.65;;;8.43;;
17844;SDS011;9047;53.486;10.218;2022-12-24T08:51:36;22.98;;;8.40;;
17844;SDS011;9047;53.486;10.218;2022-12-24T08:54:05;30.67;;;10.23;;
17844;SDS011;9047;53.486;10.218;2022-12-24T08:56:32;32.30;;;9.52;;
17844;SDS011;9047;53.486;10.218;2022-12-24T08:59:00;25.98;;;8.98;;
17844;SDS011;9047;53.486;10.218;2022-12-24T09:01:27;23.77;;;9.25;;
17844;SDS011;9047;53.486;10.218;2022-12-24T09:03:57;21.17;;;8.18;;
17844;SDS011;9047;53.486;10.218;2022-12-24T09:06:25;20.30;;;7.53;;
17844;SDS011;9047;53.486;10.218;2022-12-24T09:08:55;25.08;;;8.35;;
17844;SDS011;9047;53.486;10.218;2022-12-24T09:11:25;20.30;;;8.10;;
17844;SDS011;9047;53.486;10.218;2022-12-24T09:13:55;18.85;;;7.85;;
17844;SDS011;9047;53.486;10.218;2022-12-24T09:16:26;21.15;;;8.45;;
17844;SDS011;9047;53.486;10.218;2022-12-24T09:18:53;21.67;;;8.13;;
17844;SDS011;9047;53.486;10.218;2022-12-24T09:21:21;19.42;;;7.78;;
17844;SDS011;9047;53.486;10.218;2022-12-24T09:23:48;20.40;;;7.85;;
17844;SDS011;9047;53.486;10.218;2022-12-24T09:26:16;24.63;;;8.20;;
17844;SDS011;9047;53.486;10.218;2022-12-24T09:28:46;20.92;;;7.80;;
17844;SDS011;9047;53.486;10.218;2022-12-24T09:31:13;17.50;;;7.22;;
17844;SDS011;9047;53.486;10.218;2022-12-24T09:33:41;19.85;;;7.57;;
17844;SDS011;9047;53.486;10.218;2022-12-24T09:36:09;19.40;;;7.72;;
17844;SDS011;9047;53.486;10.218;2022-12-24T09:38:37;16.95;;;7.30;;
17844;SDS011;9047;53.486;10.218;2022-12-24T09:41:10;21.60;;;7.18;;
17844;SDS011;9047;53.486;10.218;2022-12-24T09:43:38;16.83;;;7.35;;
17844;SDS011;9047;53.486;10.218;2022-12-24T09:46:15;18.25;;;8.13;;
17844;SDS011;9047;53.486;10.218;2022-12-24T09:48:48;22.10;;;8.10;;
17844;SDS011;9047;53.486;10.218;2022-12-24T09:51:20;20.10;;;7.88;;
17844;SDS011;9047;53.486;10.218;2022-12-24T09:53:52;25.90;;;8.45;;
17844;SDS011;9047;53.486;10.218;2022-12-24T09:56:23;15.95;;;7.60;;
17844;SDS011;9047;53.486;10.218;2022-12-24T09:58:53;17.63;;;7.45;;
17844;SDS011;9047;53.486;10.218;2022-12-24T10:01:31;14.55;;;6.63;;
17844;SDS011;9047;53.486;10.218;2022-12-24T10:04:01;20.80;;;8.10;;
17844;SDS011;9047;53.486;10.218;2022-12-24T10:06:37;19.15;;;7.78;;
17844;SDS011;9047;53.486;10.218;2022-12-24T10:09:16;20.10;;;7.43;;
17844;SDS011;9047;53.486;10.218;2022-12-24T10:11:59;25.30;;;8.50;;
17844;SDS011;9047;53.486;10.218;2022-12-24T10:14:37;23.02;;;8.43;;
17844;SDS011;9047;53.486;10.218;2022-12-24T10:17:20;18.50;;;8.27;;
17844;SDS011;9047;53.486;10.218;2022-12-24T10:20:02;16.73;;;8.10;;
17844;SDS011;9047;53.486;10.218;2022-12-24T10:22:48;21.33;;;8.30;;
17844;SDS011;9047;53.486;10.218;2022-12-24T10:25:22;20.70;;;8.73;;
17844;SDS011;9047;53.486;10.218;2022-12-24T10:27:54;23.08;;;8.32;;
17844;SDS011;9047;53.486;10.218;2022-12-24T10:30:25;24.00;;;9.02;;
17844;SDS011;9047;53.486;10.218;2022-12-24T10:33:08;20.60;;;8.95;;
17844;SDS011;9047;53.486;10.218;2022-12-24T10:35:44;19.40;;;8.48;;
17844;SDS011;9047;53.486;10.218;2022-12-24T10:38:14;17.90;;;8.88;;
17844;SDS011;9047;53.486;10.218;2022-12-24T10:40:43;19.30;;;8.40;;
17844;SDS011;9047;53.486;10.218;2022-12-24T10:43:16;19.80;;;9.05;;
17844;SDS011;9047;53.486;10.218;2022-12-24T10:45:47;19.23;;;8.98;;
17844;SDS011;9047;53.486;10.218;2022-12-24T10:48:21;20.35;;;8.52;;
17844;SDS011;9047;53.486;10.218;2022-12-24T10:50:57;18.17;;;9.23;;
17844;SDS011;9047;53.486;10.218;2022-12-24T10:53:39;22.50;;;8.90;;
17844;SDS011;9047;53.486;10.218;2022-12-24T10:56:10;17.67;;;8.35;;
17844;SDS011;9047;53.486;10.218;2022-12-24T10:58:41;19.80;;;8.50;;
17844;SDS011;9047;53.486;10.218;2022-12-24T11:01:10;18.63;;;8.55;;
17844;SDS011;9047;53.486;10.218;2022-12-24T11:03:41;16.77;;;7.70;;
17844;SDS011;9047;53.486;10.218;2022-12-24T11:06:09;14.02;;;7.63;;
17844;SDS011;9047;53.486;10.218;2022-12-24T11:08:44;19.88;;;8.07;;
17844;SDS011;9047;53.486;10.218;2022-12-24T11:11:14;16.55;;;7.60;;
17844;SDS011;9047;53.486;10.218;2022-12-24T11:13:52;16.80;;;7.40;;
17844;SDS011;9047;53.486;10.218;2022-12-24T11:16:23;18.17;;;7.63;;
17844;SDS011;9047;53.486;10.218;2022-12-24T11:19:01;19.23;;;7.78;;
17844;SDS011;9047;53.486;10.218;2022-12-24T11:21:31;16.63;;;8.07;;
17844;SDS011;9047;53.486;10.218;2022-12-24T11:24:02;18.38;;;8.20;;
17844;SDS011;9047;53.486;10.218;2022-12-24T11:26:33;18.02;;;7.85;;
17844;SDS011;9047;53.486;10.218;2022-12-24T11:29:14;18.92;;;7.95;;
17844;SDS011;9047;53.486;10.218;2022-12-24T11:31:44;22.45;;;8.32;;
17844;SDS011;9047;53.486;10.218;2022-12-24T11:34:27;18.95;;;8.38;;
17844;SDS011;9047;53.486;10.218;2022-12-24T11:36:56;16.88;;;8.20;;
17844;SDS011;9047;53.486;10.218;2022-12-24T11:39:37;17.90;;;8.48;;
17844;SDS011;9047;53.486;10.218;2022-12-24T11:42:06;17.02;;;8.07;;
17844;SDS011;9047;53.486;10.218;2022-12-24T11:44:55;16.45;;;8.52;;
17844;SDS011;9047;53.486;10.218;2022-12-24T11:47:41;18.63;;;8.88;;
17844;SDS011;9047;53.486;10.218;2022-12-24T11:50:21;19.33;;;8.93;;
17844;SDS011;9047;53.486;10.218;2022-12-24T11:53:01;18.27;;;8.50;;
17844;SDS011;9047;53.486;10.218;2022-12-24T11:55:40;18.50;;;8.80;;
17844;SDS011;9047;53.486;10.218;2022-12-24T11:58:24;18.63;;;8.93;;
17844;SDS011;9047;53.486;10.218;2022-12-24T12:00:59;21.27;;;9.07;;
17844;SDS011;9047;53.486;10.218;2022-12-24T12:03:35;19.38;;;9.20;;
17844;SDS011;9047;53.486;10.218;2022-12-24T12:06:15;18.38;;;8.23;;
17844;SDS011;9047;53.486;10.218;2022-12-24T12:08:54;18.02;;;8.77;;
17844;SDS011;9047;53.486;10.218;2022-12-24T12:11:32;17.23;;;8.88;;
17844;SDS011;9047;53.486;10.218;2022-12-24T12:14:26;17.10;;;8.70;;
17844;SDS011;9047;53.486;10.218;2022-12-24T12:17:33;16.90;;;8.27;;
17844;SDS011;9047;53.486;10.218;2022-12-24T12:20:17;16.15;;;8.77;;
17844;SDS011;9047;53.486;10.218;2022-12-24T12:22:52;19.92;;;8.77;;
17844;SDS011;9047;53.486;10.218;2022-12-24T12:25:29;19.25;;;8.95;;
17844;SDS011;9047;53.486;10.218;2022-12-24T12:28:10;18.25;;;8.73;;
17844;SDS011;9047;53.486;10.218;2022-12-24T12:31:04;20.63;;;9.98;;
17844;SDS011;9047;53.486;10.218;2022-12-24T12:33:40;17.60;;;9.25;;
17844;SDS011;9047;53.486;10.218;2022-12-24T12:36:13;19.95;;;9.95;;
17844;SDS011;9047;53.486;10.218;2022-12-24T12:38:48;17.98;;;9.00;;
17844;SDS011;9047;53.486;10.218;2022-12-24T12:41:31;19.67;;;9.70;;
17844;SDS011;9047;53.486;10.218;2022-12-24T12:44:18;17.88;;;9.30;;
17844;SDS011;9047;53.486;10.218;2022-12-24T12:47:03;16.05;;;9.25;;
17844;SDS011;9047;53.486;10.218;2022-12-24T12:49:45;16.75;;;9.00;;
17844;SDS011;9047;53.486;10.218;2022-12-24T12:52:25;21.70;;;9.88;;
17844;SDS011;9047;53.486;10.218;2022-12-24T12:55:51;22.30;;;10.68;;
17844;SDS011;9047;53.486;10.218;2022-12-24T12:58:26;23.05;;;10.18;;
17844;SDS011;9047;53.486;10.218;2022-12-24T13:01:06;16.70;;;8.77;;
17844;SDS011;9047;53.486;10.218;2022-12-24T13:03:51;20.67;;;9.95;;
17844;SDS011;9047;53.486;10.218;2022-12-24T13:07:09;20.85;;;10.40;;
17844;SDS011;9047;53.486;10.218;2022-12-24T13:09:59;21.95;;;10.90;;
17844;SDS011;9047;53.486;10.218;2022-12-24T13:12:46;23.00;;;10.60;;
17844;SDS011;9047;53.486;10.218;2022-12-24T13:18:39;22.98;;;10.95;;
17844;SDS011;9047;53.486;10.218;2022-12-24T13:21:32;21.52;;;10.18;;
17844;SDS011;9047;53.486;10.218;2022-12-24T13:24:03;22.17;;;10.95;;
17844;SDS011;9047;53.486;10.218;2022-12-24T13:26:33;22.95;;;10.40;;
17844;SDS011;9047;53.486;10.218;2022-12-24T13:35:26;23.15;;;10.93;;
17844;SDS011;9047;53.486;10.218;2022-12-24T13:47:01;27.77;;;11.73;;
17844;SDS011;9047;53.486;10.218;2022-12-24T13:49:47;28.00;;;12.68;;
17844;SDS011;9047;53.486;10.218;2022-12-24T13:52:25;21.67;;;11.55;;
17844;SDS011;9047;53.486;10.218;2022-12-24T13:58:04;27.08;;;11.98;;
17844;SDS011;9047;53.486;10.218;2022-12-24T14:01:19;28.73;;;12.45;;
17844;SDS011;9047;53.486;10.218;2022-12-24T14:03:54;24.60;;;11.75;;
17844;SDS011;9047;53.486;10.218;2022-12-24T14:06:25;28.95;;;12.95;;
17844;SDS011;9047;53.486;10.218;2022-12-24T14:09:04;28.05;;;12.75;;
17844;SDS011;9047;53.486;10.218;2022-12-24T14:14:41;34.92;;;15.30;;
17844;SDS011;9047;53.486;10.218;2022-12-24T14:17:11;31.42;;;14.05;;
17844;SDS011;9047;53.486;10.218;2022-12-24T14:19:50;38.55;;;16.20;;
17844;SDS011;9047;53.486;10.218;2022-12-24T14:22:26;41.63;;;15.57;;
17844;SDS011;9047;53.486;10.218;2022-12-24T14:24:56;31.75;;;14.23;;
17844;SDS011;9047;53.486;10.218;2022-12-24T14:27:28;41.42;;;17.23;;
17844;SDS011;9047;53.486;10.218;2022-12-24T14:30:02;39.90;;;15.52;;
17844;SDS011;9047;53.486;10.218;2022-12-24T14:32:46;46.42;;;18.33;;
17844;SDS011;9047;53.486;10.218;2022-12-24T14:35:17;43.72;;;17.65;;
17844;SDS011;9047;53.486;10.218;2022-12-24T14:37:50;42.85;;;16.83;;
17844;SDS011;9047;53.486;10.218;2022-12-24T14:40:25;43.30;;;16.38;;
17844;SDS011;9047;53.486;10.218;2022-12-24T14:42:56;41.40;;;15.77;;
17844;SDS011;9047;53.486;10.218;2022-12-24T14:45:31;44.05;;;16.75;;
17844;SDS011;9047;53.486;10.218;2022-12-24T14:48:05;43.50;;;16.88;;
17844;SDS011;9047;53.486;10.218;2022-12-24T14:51:16;34.00;;;15.07;;
17844;SDS011;9047;53.486;10.218;2022-12-24T14:54:03;42.83;;;15.38;;
17844;SDS011;9047;53.486;10.218;2022-12-24T14:57:05;33.05;;;14.20;;
17844;SDS011;9047;53.486;10.218;2022-12-24T14:59:50;44.85;;;15.60;;
17844;SDS011;9047;53.486;10.218;2022-12-24T15:02:30;41.42;;;15.38;;
17844;SDS011;9047;53.486;10.218;2022-12-24T15:05:05;37.75;;;14.98;;
17844;SDS011;9047;53.486;10.218;2022-12-24T15:07:46;48.20;;;15.50;;
17844;SDS011;9047;53.486;10.218;2022-12-24T15:10:27;43.40;;;15.55;;
17844;SDS011;9047;53.486;10.218;2022-12-24T15:13:13;43.15;;;16.73;;
17844;SDS011;9047;53.486;10.218;2022-12-24T15:15:48;50.42;;;19.10;;
17844;SDS011;9047;53.486;10.218;2022-12-24T15:18:17;46.42;;;16.73;;
17844;SDS011;9047;53.486;10.218;2022-12-24T15:20:50;49.72;;;17.80;;
17844;SDS011;9047;53.486;10.218;2022-12-24T15:23:26;47.65;;;18.88;;
17844;SDS011;9047;53.486;10.218;2022-12-24T15:26:05;48.15;;;16.83;;
17844;SDS011;9047;53.486;10.218;2022-12-24T15:28:50;48.45;;;16.02;;